createdAt,value
2023-05-19T00:01:19.650Z,15.30
2023-05-19T00:03:54.427Z,12.30
2023-05-19T00:06:31.911Z,11.10
2023-05-19T00:08:59.105Z,13.10
2023-05-19T00:11:28.525Z,11.00
2023-05-19T00:13:56.478Z,12.60
2023-05-19T00:16:24.307Z,18.10
2023-05-19T00:18:52.010Z,13.10
2023-05-19T00:21:19.229Z,10.70
2023-05-19T00:23:46.296Z,12.10
2023-05-19T00:26:13.358Z,12.90
2023-05-19T00:28:42.010Z,12.50
2023-05-19T00:31:09.432Z,14.00
2023-05-19T00:33:36.802Z,12.30
2023-05-19T00:36:04.208Z,12.30
2023-05-19T00:38:31.947Z,13.60
2023-05-19T00:40:59.788Z,13.30
2023-05-19T00:43:27.033Z,10.80
2023-05-19T00:45:54.091Z,10.40
2023-05-19T00:48:21.956Z,13.00
2023-05-19T00:50:49.675Z,13.20
2023-05-19T00:53:17.934Z,12.60
2023-05-19T00:55:45.104Z,12.50
2023-05-19T00:58:12.406Z,13.40
2023-05-19T01:00:40.082Z,12.40
2023-05-19T01:03:13.390Z,11.80
2023-05-19T01:05:47.808Z,12.00
2023-05-19T01:08:14.949Z,9.00
2023-05-19T01:10:42.069Z,10.90
2023-05-19T01:13:09.686Z,10.00
2023-05-19T01:15:52.657Z,11.90
2023-05-19T01:18:23.443Z,10.50
2023-05-19T01:21:17.853Z,13.30
2023-05-19T01:24:03.983Z,10.30
2023-05-19T01:26:37.302Z,10.50
2023-05-19T01:29:19.450Z,10.20
2023-05-19T01:31:48.209Z,11.20
2023-05-19T01:34:15.247Z,12.30
2023-05-19T01:36:45.117Z,10.20
2023-05-19T01:39:13.142Z,11.60
2023-05-19T01:41:40.924Z,8.60
2023-05-19T01:44:09.181Z,9.50
2023-05-19T01:46:36.736Z,11.10
2023-05-19T01:49:03.761Z,9.80
2023-05-19T01:51:31.659Z,8.90
2023-05-19T01:53:59.258Z,8.90
2023-05-19T01:56:37.999Z,8.90
2023-05-19T01:59:13.657Z,10.80
2023-05-19T02:01:53.269Z,10.60
2023-05-19T02:04:40.175Z,9.50
2023-05-19T02:07:15.960Z,10.30
2023-05-19T02:10:05.439Z,12.00
2023-05-19T02:12:37.777Z,10.20
2023-05-19T02:15:05.373Z,8.40
2023-05-19T02:17:36.422Z,7.70
2023-05-19T02:20:04.767Z,7.70
2023-05-19T02:22:33.530Z,7.40
2023-05-19T02:25:00.623Z,10.80
2023-05-19T02:27:27.737Z,9.90
2023-05-19T02:29:57.780Z,7.60
2023-05-19T02:32:24.846Z,10.30
2023-05-19T02:34:53.457Z,8.60
2023-05-19T02:37:23.980Z,8.50
2023-05-19T02:39:51.421Z,7.50
2023-05-19T02:42:18.502Z,7.90
2023-05-19T02:44:46.371Z,8.20
2023-05-19T02:47:14.043Z,7.70
2023-05-19T02:49:41.299Z,9.10
2023-05-19T02:52:08.351Z,8.40
2023-05-19T02:54:35.613Z,7.10
2023-05-19T02:57:02.618Z,8.90
2023-05-19T02:59:29.857Z,7.90
2023-05-19T03:02:01.074Z,8.50
2023-05-19T03:04:31.792Z,7.90
2023-05-19T03:06:58.870Z,7.90
2023-05-19T03:09:27.320Z,7.70
2023-05-19T03:11:54.363Z,8.00
2023-05-19T03:14:24.356Z,8.70
2023-05-19T03:16:51.743Z,8.20
2023-05-19T03:19:18.971Z,9.20
2023-05-19T03:21:47.619Z,7.80
2023-05-19T03:24:16.361Z,8.30
2023-05-19T03:26:43.418Z,8.80
2023-05-19T03:29:11.628Z,9.30
2023-05-19T03:31:39.752Z,8.00
2023-05-19T03:34:06.907Z,9.00
2023-05-19T03:36:40.022Z,6.40
2023-05-19T03:39:11.331Z,6.60
2023-05-19T03:41:38.453Z,7.00
2023-05-19T03:44:05.602Z,8.50
2023-05-19T03:46:32.669Z,6.10
2023-05-19T03:49:22.802Z,7.10
2023-05-19T03:52:10.024Z,8.60
2023-05-19T03:54:53.233Z,7.20
2023-05-19T03:57:20.311Z,7.10
2023-05-19T03:59:47.810Z,7.10
2023-05-19T04:02:16.169Z,7.90
2023-05-19T04:04:43.740Z,7.50
2023-05-19T04:07:11.916Z,8.60
2023-05-19T04:09:40.336Z,7.20
2023-05-19T04:12:07.772Z,8.10
2023-05-19T04:14:35.100Z,6.60
2023-05-19T04:17:03.516Z,6.90
2023-05-19T04:19:30.739Z,8.80
2023-05-19T04:21:57.759Z,6.90
2023-05-19T04:24:24.914Z,8.90
2023-05-19T04:26:52.356Z,7.40
2023-05-19T04:29:19.794Z,8.00
2023-05-19T04:31:47.108Z,8.00
2023-05-19T04:34:14.130Z,8.70
2023-05-19T04:36:41.861Z,8.10
2023-05-19T04:39:12.341Z,9.70
2023-05-19T04:41:42.169Z,10.00
2023-05-19T04:44:09.659Z,7.40
2023-05-19T04:46:37.498Z,6.30
2023-05-19T04:49:05.372Z,9.30
2023-05-19T04:51:32.612Z,6.40
2023-05-19T04:54:01.745Z,7.00
2023-05-19T04:56:29.106Z,8.50
2023-05-19T04:58:57.733Z,6.90
2023-05-19T05:01:26.560Z,6.40
2023-05-19T05:03:55.555Z,8.00
2023-05-19T05:06:22.836Z,8.20
2023-05-19T05:08:50.222Z,9.40
2023-05-19T05:11:18.325Z,9.40
2023-05-19T05:13:48.172Z,8.60
2023-05-19T05:16:16.007Z,6.40
2023-05-19T05:18:44.777Z,5.40
2023-05-19T05:21:13.855Z,8.10
2023-05-19T05:23:42.955Z,7.30
2023-05-19T05:26:12.340Z,10.00
2023-05-19T05:28:41.567Z,7.10
2023-05-19T05:31:08.683Z,8.80
2023-05-19T05:33:35.933Z,7.10
2023-05-19T05:36:03.000Z,5.90
2023-05-19T05:38:30.380Z,8.60
2023-05-19T05:40:57.789Z,6.40
2023-05-19T05:43:25.327Z,9.30
2023-05-19T05:45:57.475Z,6.90
2023-05-19T05:48:24.904Z,9.10
2023-05-19T05:50:52.828Z,8.20
2023-05-19T05:53:22.364Z,6.10
2023-05-19T05:55:51.848Z,4.80
2023-05-19T05:58:21.451Z,5.70
2023-05-19T06:00:50.408Z,7.80
2023-05-19T06:03:17.888Z,6.50
2023-05-19T06:05:45.636Z,6.00
2023-05-19T06:08:13.581Z,8.20
2023-05-19T06:10:45.101Z,5.70
2023-05-19T06:13:13.882Z,8.10
2023-05-19T06:15:41.429Z,7.80
2023-05-19T06:18:18.682Z,6.60
2023-05-19T06:20:48.263Z,7.60
2023-05-19T06:23:15.322Z,8.90
2023-05-19T06:25:42.433Z,6.70
2023-05-19T06:28:11.093Z,5.40
2023-05-19T06:30:38.364Z,10.40
2023-05-19T06:33:31.599Z,9.20
2023-05-19T06:35:58.684Z,8.10
2023-05-19T06:38:26.371Z,6.80
2023-05-19T06:40:53.413Z,6.00
2023-05-19T06:43:20.689Z,5.80
2023-05-19T06:45:55.486Z,7.60
2023-05-19T06:48:23.345Z,7.50
2023-05-19T06:50:51.069Z,5.60
2023-05-19T06:53:19.749Z,7.80
2023-05-19T06:55:57.994Z,6.20
2023-05-19T06:58:28.227Z,7.40
2023-05-19T07:00:55.943Z,6.50
2023-05-19T07:03:25.094Z,6.80
2023-05-19T07:05:52.323Z,7.30
2023-05-19T07:08:20.563Z,7.30
2023-05-19T07:10:47.565Z,7.40
2023-05-19T07:13:17.122Z,6.90
2023-05-19T07:15:44.321Z,6.90
2023-05-19T07:18:11.469Z,7.50
2023-05-19T07:20:38.836Z,7.10
2023-05-19T07:23:05.966Z,9.50
2023-05-19T07:25:33.567Z,6.00
2023-05-19T07:28:00.808Z,5.90
2023-05-19T07:30:31.317Z,8.00
2023-05-19T07:32:58.696Z,6.70
2023-05-19T07:35:26.479Z,6.20
2023-05-19T07:37:53.585Z,7.40
2023-05-19T07:40:20.628Z,7.60
2023-05-19T07:42:49.782Z,7.70
2023-05-19T07:45:16.887Z,10.00
2023-05-19T07:47:43.949Z,5.70
2023-05-19T07:50:11.010Z,6.70
2023-05-19T07:52:38.073Z,5.90
2023-05-19T07:55:06.509Z,7.30
2023-05-19T07:57:33.582Z,9.30
2023-05-19T08:00:00.623Z,5.30
2023-05-19T08:02:27.811Z,6.70
2023-05-19T08:04:55.166Z,6.80
2023-05-19T08:07:22.411Z,6.70
2023-05-19T08:09:50.060Z,8.00
2023-05-19T08:12:17.756Z,7.60
2023-05-19T08:14:44.784Z,6.90
2023-05-19T08:17:11.879Z,6.30
2023-05-19T08:19:38.941Z,8.70
2023-05-19T08:22:06.112Z,8.10
2023-05-19T08:24:34.178Z,6.70
2023-05-19T08:27:01.497Z,6.80
2023-05-19T08:29:28.571Z,7.00
2023-05-19T08:31:55.864Z,8.30
2023-05-19T08:34:23.101Z,7.40
2023-05-19T08:36:50.573Z,7.80
2023-05-19T08:39:19.853Z,7.70
2023-05-19T08:41:46.899Z,7.40
2023-05-19T08:44:13.850Z,7.70
2023-05-19T08:46:41.008Z,5.90
2023-05-19T08:49:13.821Z,9.30
2023-05-19T08:51:50.355Z,7.70
2023-05-19T08:54:19.390Z,7.10
2023-05-19T08:56:46.783Z,7.00
2023-05-19T08:59:15.318Z,8.00
2023-05-19T09:01:46.597Z,6.00
2023-05-19T09:04:13.785Z,7.30
2023-05-19T09:06:42.545Z,6.90
2023-05-19T09:09:09.731Z,6.60
2023-05-19T09:11:37.915Z,6.80
2023-05-19T09:14:05.919Z,7.90
2023-05-19T09:16:34.267Z,7.00
2023-05-19T09:19:01.677Z,6.50
2023-05-19T09:21:31.968Z,7.70
2023-05-19T09:24:04.156Z,7.00
2023-05-19T09:26:42.082Z,8.40
2023-05-19T09:29:18.522Z,8.70
2023-05-19T09:32:01.850Z,8.40
2023-05-19T09:34:28.982Z,7.10
2023-05-19T09:36:56.057Z,7.30
2023-05-19T09:39:23.628Z,10.80
2023-05-19T09:41:54.449Z,8.20
2023-05-19T09:44:21.472Z,6.90
2023-05-19T09:46:49.786Z,6.00
2023-05-19T09:49:21.212Z,6.80
2023-05-19T09:51:55.781Z,6.30
2023-05-19T09:54:24.012Z,6.60
2023-05-19T09:56:59.243Z,6.80
2023-05-19T09:59:26.521Z,9.10
2023-05-19T10:01:54.848Z,9.80
2023-05-19T10:04:22.977Z,7.00
2023-05-19T10:06:54.435Z,6.00
2023-05-19T10:11:55.641Z,6.60
2023-05-19T10:14:24.977Z,8.00
2023-05-19T10:16:53.097Z,6.00
2023-05-19T10:19:21.355Z,7.20
2023-05-19T10:21:48.756Z,7.00
2023-05-19T10:24:15.906Z,6.80
2023-05-19T10:26:46.705Z,7.00
2023-05-19T10:29:15.731Z,6.40
2023-05-19T10:31:42.796Z,7.60
2023-05-19T10:34:40.811Z,7.80
2023-05-19T10:37:18.113Z,7.30
2023-05-19T10:39:45.731Z,7.90
2023-05-19T10:42:33.089Z,11.40
2023-05-19T10:45:20.411Z,7.60
2023-05-19T10:47:48.104Z,9.30
2023-05-19T10:50:15.273Z,11.30
2023-05-19T10:52:42.425Z,8.70
2023-05-19T10:55:17.853Z,9.20
2023-05-19T10:57:56.978Z,10.90
2023-05-19T11:00:27.861Z,10.40
2023-05-19T11:02:58.259Z,10.30
2023-05-19T11:05:29.725Z,7.90
2023-05-19T11:10:24.727Z,9.10
2023-05-19T11:12:52.363Z,10.10
2023-05-19T11:15:19.671Z,9.10
2023-05-19T11:17:49.155Z,9.80
2023-05-19T11:20:26.868Z,8.60
2023-05-19T11:23:19.002Z,7.60
2023-05-19T11:25:51.495Z,11.40
2023-05-19T11:28:19.974Z,7.10
2023-05-19T11:30:52.165Z,8.80
2023-05-19T11:33:27.431Z,7.80
2023-05-19T11:36:00.902Z,9.10
2023-05-19T11:38:30.401Z,5.90
2023-05-19T11:41:00.055Z,7.80
2023-05-19T11:43:27.166Z,7.10
2023-05-19T11:45:54.843Z,6.70
2023-05-19T11:48:22.734Z,10.00
2023-05-19T11:50:50.237Z,7.10
2023-05-19T11:53:17.667Z,6.50
2023-05-19T11:55:48.410Z,8.90
2023-05-19T11:58:16.514Z,6.80
2023-05-19T12:00:46.263Z,10.40
2023-05-19T12:03:13.638Z,7.00
2023-05-19T12:05:47.370Z,7.30
2023-05-19T12:08:15.133Z,6.00
2023-05-19T12:10:42.166Z,8.10
2023-05-19T12:13:09.977Z,7.40
2023-05-19T12:15:37.932Z,9.80
2023-05-19T12:18:05.060Z,8.40
2023-05-19T12:20:32.794Z,6.70
2023-05-19T12:23:00.475Z,7.40
2023-05-19T12:25:28.700Z,7.70
2023-05-19T12:27:59.878Z,8.20
2023-05-19T12:30:28.499Z,8.40
2023-05-19T12:32:57.866Z,8.10
2023-05-19T12:35:29.532Z,6.30
2023-05-19T12:37:56.571Z,8.50
2023-05-19T12:40:23.651Z,7.50
2023-05-19T12:42:53.508Z,8.50
2023-05-19T12:45:21.594Z,7.10
2023-05-19T12:47:48.891Z,7.00
2023-05-19T12:50:16.399Z,6.50
2023-05-19T12:52:52.382Z,5.90
2023-05-19T12:55:21.132Z,5.80
2023-05-19T12:57:54.959Z,7.30
2023-05-19T13:00:22.885Z,8.40
2023-05-19T13:03:10.247Z,6.40
2023-05-19T13:05:40.187Z,6.10
2023-05-19T13:08:08.476Z,7.00
2023-05-19T13:10:36.433Z,6.20
2023-05-19T13:13:03.548Z,7.80
2023-05-19T13:15:34.598Z,7.90
2023-05-19T13:18:03.539Z,7.60
2023-05-19T13:20:30.961Z,7.10
2023-05-19T13:22:58.259Z,6.60
2023-05-19T13:25:26.012Z,7.60
2023-05-19T13:27:53.149Z,7.90
2023-05-19T13:30:21.182Z,7.30
2023-05-19T13:32:48.350Z,6.10
2023-05-19T13:35:16.023Z,6.40
2023-05-19T13:37:43.167Z,8.10
2023-05-19T13:40:10.963Z,8.00
2023-05-19T13:42:38.188Z,8.40
2023-05-19T13:45:05.646Z,7.10
2023-05-19T13:47:32.882Z,9.80
2023-05-19T13:49:59.996Z,8.50
2023-05-19T13:52:29.078Z,8.30
2023-05-19T13:54:57.540Z,8.50
2023-05-19T13:57:25.725Z,5.80
2023-05-19T14:00:01.597Z,6.10
2023-05-19T14:02:39.939Z,6.20
2023-05-19T14:05:07.666Z,6.80
2023-05-19T14:07:35.412Z,8.10
2023-05-19T14:10:04.152Z,8.00
2023-05-19T14:12:41.303Z,10.20
2023-05-19T14:15:14.765Z,9.70
2023-05-19T14:17:41.946Z,10.10
2023-05-19T14:20:09.826Z,7.70
2023-05-19T14:22:36.868Z,8.40
2023-05-19T14:25:04.167Z,8.90
2023-05-19T14:27:31.268Z,10.90
2023-05-19T14:29:58.348Z,7.50
2023-05-19T14:32:28.620Z,7.40
2023-05-19T14:34:57.206Z,7.60
2023-05-19T14:37:27.782Z,7.00
2023-05-19T14:39:55.237Z,7.10
2023-05-19T14:42:24.004Z,7.40
2023-05-19T14:44:51.137Z,7.90
2023-05-19T14:47:18.264Z,7.90
2023-05-19T14:49:45.361Z,7.20
2023-05-19T14:52:12.340Z,7.50
2023-05-19T14:54:39.466Z,7.30
2023-05-19T14:57:08.290Z,8.70
2023-05-19T14:59:38.804Z,8.70
2023-05-19T15:02:06.209Z,6.20
2023-05-19T15:04:33.869Z,8.50
2023-05-19T15:09:48.121Z,6.00
2023-05-19T15:12:15.142Z,6.90
2023-05-19T15:14:42.196Z,7.50
2023-05-19T15:17:09.357Z,5.70
2023-05-19T15:19:36.416Z,7.80
2023-05-19T15:22:03.475Z,6.00
2023-05-19T15:24:37.226Z,6.10
2023-05-19T15:27:04.506Z,6.80
2023-05-19T15:29:31.544Z,6.80
2023-05-19T15:31:58.622Z,6.50
2023-05-19T15:34:25.629Z,8.40
2023-05-19T15:36:52.705Z,8.60
2023-05-19T15:39:19.708Z,6.70
2023-05-19T15:41:46.920Z,6.40
2023-05-19T15:44:13.968Z,6.70
2023-05-19T15:46:41.346Z,8.40
2023-05-19T15:49:08.594Z,8.10
2023-05-19T15:51:35.795Z,5.80
2023-05-19T15:54:03.371Z,6.40
2023-05-19T15:56:30.672Z,6.60
2023-05-19T15:58:57.723Z,6.80
2023-05-19T16:01:25.259Z,6.10
2023-05-19T16:03:53.939Z,7.80
2023-05-19T16:06:21.670Z,7.00
2023-05-19T16:08:48.727Z,6.20
2023-05-19T16:11:15.900Z,9.40
2023-05-19T16:13:43.046Z,7.10
2023-05-19T16:16:10.106Z,8.00
2023-05-19T16:18:37.268Z,5.60
2023-05-19T16:21:04.556Z,7.20
2023-05-19T16:23:31.596Z,7.80
2023-05-19T16:25:58.686Z,8.60
2023-05-19T16:28:25.799Z,5.40
2023-05-19T16:30:52.820Z,8.90
2023-05-19T16:33:19.851Z,5.50
2023-05-19T16:35:46.949Z,5.90
2023-05-19T16:38:14.013Z,5.60
2023-05-19T16:40:41.050Z,5.90
2023-05-19T16:43:08.149Z,5.90
2023-05-19T16:45:35.184Z,6.50
2023-05-19T16:48:02.347Z,6.30
2023-05-19T16:50:29.625Z,7.30
2023-05-19T16:52:56.634Z,6.00
2023-05-19T16:55:27.001Z,7.60
2023-05-19T16:57:57.219Z,6.70
2023-05-19T17:00:24.914Z,8.00
2023-05-19T17:02:52.040Z,5.60
2023-05-19T17:05:19.507Z,7.90
2023-05-19T17:07:46.712Z,6.40
2023-05-19T17:10:16.755Z,5.70
2023-05-19T17:12:43.782Z,7.10
2023-05-19T17:15:11.227Z,6.40
2023-05-19T17:17:38.423Z,6.40
2023-05-19T17:20:06.599Z,7.50
2023-05-19T17:22:33.616Z,9.30
2023-05-19T17:25:00.622Z,8.40
2023-05-19T17:27:27.684Z,7.60
2023-05-19T17:29:54.728Z,7.30
2023-05-19T17:32:25.924Z,6.40
2023-05-19T17:34:53.236Z,7.20
2023-05-19T17:37:23.630Z,8.90
2023-05-19T17:39:51.208Z,9.00
2023-05-19T17:42:19.564Z,7.00
2023-05-19T17:44:47.156Z,9.30
2023-05-19T17:47:14.390Z,8.00
2023-05-19T17:49:41.777Z,8.80
2023-05-19T17:52:09.518Z,10.20
2023-05-19T17:54:36.898Z,10.30
2023-05-19T17:57:04.259Z,11.50
2023-05-19T17:59:31.537Z,11.80
2023-05-19T18:01:59.237Z,10.60
2023-05-19T18:04:26.654Z,10.00
2023-05-19T18:06:54.737Z,10.00
2023-05-19T18:09:21.828Z,10.80
2023-05-19T18:11:48.902Z,10.00
2023-05-19T18:14:15.968Z,9.60
2023-05-19T18:16:43.861Z,9.80
2023-05-19T18:19:11.206Z,9.20
2023-05-19T18:21:38.443Z,9.20
2023-05-19T18:24:06.307Z,9.10
2023-05-19T18:26:33.759Z,9.80
2023-05-19T18:29:05.385Z,9.00
2023-05-19T18:31:32.511Z,8.70
2023-05-19T18:33:59.676Z,11.20
2023-05-19T18:36:26.791Z,11.50
2023-05-19T18:38:55.265Z,9.70
2023-05-19T18:41:22.449Z,10.70
2023-05-19T18:43:49.528Z,11.40
2023-05-19T18:46:19.962Z,9.30
2023-05-19T18:48:49.128Z,10.70
2023-05-19T18:51:18.755Z,9.90
2023-05-19T18:53:48.804Z,13.10
2023-05-19T18:56:23.439Z,11.00
2023-05-19T18:58:51.136Z,9.00
2023-05-19T19:01:18.359Z,10.00
2023-05-19T19:03:47.241Z,10.00
2023-05-19T19:06:14.288Z,8.70
2023-05-19T19:08:41.456Z,10.10
2023-05-19T19:11:11.423Z,9.40
2023-05-19T19:13:40.074Z,9.50
2023-05-19T19:16:07.437Z,12.20
2023-05-19T19:18:36.542Z,11.00
2023-05-19T19:21:05.969Z,9.70
2023-05-19T19:23:33.403Z,10.20
2023-05-19T19:26:02.490Z,10.50
2023-05-19T19:28:34.247Z,11.20
2023-05-19T19:31:01.284Z,10.40
2023-05-19T19:33:28.335Z,10.00
2023-05-19T19:35:55.662Z,14.20
2023-05-19T19:38:22.731Z,12.70
2023-05-19T19:40:52.489Z,11.30
2023-05-19T19:43:19.654Z,10.30
2023-05-19T19:45:46.712Z,11.20
2023-05-19T19:48:13.826Z,9.80
2023-05-19T19:50:40.916Z,11.30
2023-05-19T19:53:09.102Z,11.80
2023-05-19T19:55:36.079Z,10.70
2023-05-19T19:58:03.169Z,12.40
2023-05-19T20:00:32.029Z,10.70
2023-05-19T20:05:29.263Z,11.90
2023-05-19T20:07:56.394Z,10.90
2023-05-19T20:10:23.456Z,10.10
2023-05-19T20:12:51.507Z,10.20
2023-05-19T20:15:18.724Z,12.10
2023-05-19T20:17:46.013Z,11.00
2023-05-19T20:20:13.494Z,12.20
2023-05-19T20:22:40.661Z,11.30
2023-05-19T20:25:08.116Z,10.80
2023-05-19T20:27:35.262Z,11.00
2023-05-19T20:30:02.315Z,11.10
2023-05-19T20:32:29.449Z,10.60
2023-05-19T20:34:56.825Z,11.60
2023-05-19T20:37:23.954Z,10.70
2023-05-19T20:39:50.961Z,11.80
2023-05-19T20:42:18.050Z,11.60
2023-05-19T20:44:45.286Z,11.30
2023-05-19T20:47:12.314Z,11.30
2023-05-19T20:49:39.377Z,10.60
2023-05-19T20:52:06.645Z,10.10
2023-05-19T20:54:33.736Z,10.80
2023-05-19T20:57:01.434Z,10.50
2023-05-19T20:59:28.457Z,12.20
2023-05-19T21:01:55.568Z,11.50
2023-05-19T21:04:22.762Z,10.60
2023-05-19T21:06:49.849Z,11.30
2023-05-19T21:09:16.986Z,10.10
2023-05-19T21:11:44.230Z,11.50
2023-05-19T21:14:11.214Z,11.50
2023-05-19T21:16:39.089Z,9.20
2023-05-19T21:19:06.847Z,10.10
2023-05-19T21:21:34.111Z,9.20
2023-05-19T21:24:01.164Z,10.80
2023-05-19T21:26:28.194Z,9.70
2023-05-19T21:28:55.228Z,10.10
2023-05-19T21:31:22.309Z,11.10
2023-05-19T21:33:49.563Z,10.00
2023-05-19T21:36:17.190Z,11.10
2023-05-19T21:38:44.244Z,10.10
2023-05-19T21:41:11.340Z,11.40
2023-05-19T21:43:38.376Z,11.40
2023-05-19T21:46:05.523Z,10.30
2023-05-19T21:48:32.603Z,10.30
2023-05-19T21:50:59.608Z,11.70
2023-05-19T21:53:26.616Z,9.80
2023-05-19T21:55:53.913Z,11.50
2023-05-19T21:58:21.113Z,10.40
2023-05-19T22:00:51.903Z,11.30
2023-05-19T22:03:19.651Z,12.00
2023-05-19T22:05:50.628Z,11.20
2023-05-19T22:08:18.052Z,12.10
2023-05-19T22:10:45.168Z,11.30
2023-05-19T22:13:12.800Z,12.40
2023-05-19T22:15:39.870Z,13.00
2023-05-19T22:18:07.059Z,11.40
2023-05-19T22:20:34.698Z,11.50
2023-05-19T22:23:03.253Z,10.70
2023-05-19T22:25:30.571Z,12.20
2023-05-19T22:27:57.729Z,10.60
2023-05-19T22:30:24.794Z,10.70
2023-05-19T22:32:51.893Z,11.70
2023-05-19T22:35:19.298Z,10.30
2023-05-19T22:37:46.332Z,12.20
2023-05-19T22:40:14.676Z,10.80
2023-05-19T22:42:41.663Z,10.30
2023-05-19T22:45:09.478Z,10.40
2023-05-19T22:47:36.868Z,11.80
2023-05-19T22:50:04.280Z,11.90
2023-05-19T22:52:31.218Z,10.70
2023-05-19T22:54:58.667Z,11.20
2023-05-19T22:57:25.694Z,11.00
2023-05-19T22:59:52.727Z,12.00
2023-05-19T23:02:19.965Z,11.30
2023-05-19T23:04:47.004Z,11.60
2023-05-19T23:07:13.953Z,12.40
2023-05-19T23:09:41.004Z,11.20
2023-05-19T23:12:07.988Z,15.00
2023-05-19T23:14:35.047Z,11.00
2023-05-19T23:17:02.156Z,10.50
2023-05-19T23:19:32.030Z,10.30
2023-05-19T23:21:59.035Z,11.20
2023-05-19T23:24:26.063Z,11.20
2023-05-19T23:26:54.833Z,11.00
2023-05-19T23:29:21.862Z,10.30
2023-05-19T23:31:51.198Z,12.00
2023-05-19T23:34:18.353Z,9.80
2023-05-19T23:36:46.806Z,9.60
2023-05-19T23:39:14.428Z,10.70
2023-05-19T23:41:41.583Z,11.40
2023-05-19T23:44:08.585Z,11.30
2023-05-19T23:46:35.812Z,10.90
2023-05-19T23:49:03.032Z,10.00
2023-05-19T23:51:30.137Z,10.30
2023-05-19T23:53:57.222Z,9.80
2023-05-19T23:56:24.232Z,10.00
2023-05-19T23:58:51.740Z,10.20
